KETN/ETN METAR and TAF weather

Enter ICAO airport designator
Station Type Date Time Source
KETN METAR 2020/04/07 06:15 UTC NOAA

KETN 070615Z AUTO 20009G14KT 10SM BKN012 OVC120 19/18 A2996 RMK AO2 T01890178


Station Type Date Time Source
KETN Decoded METAR 2020/04/07 06:15 UTC NOAA

Station name not available
Apr 07, 2020 - 02:15 AM EDT / 2020.04.07 0615 UTC
Wind: from the SSW (200 degrees) at 10 MPH (9 KT) gusting to 16 MPH (14 KT):0
Visibility: 10 mile(s):0
Sky conditions: overcast
Temperature: 66.0 F (18.9 C)
Dew Point: 64.0 F (17.8 C)
Relative Humidity: 93%
Pressure (altimeter): 29.96 in. Hg (1014 hPa)
ob: KETN 070615Z AUTO 20009G14KT 10SM BKN012 OVC120 19/18 A2996 RMK AO2 T01890178
cycle: 6

Station Type Date Time Source
KETN TAF UTC NOAA

Error!

Example: see airport list